sensor_id;sensor_type;location;lat;lon;timestamp;P1;durP1;ratioP1;P2;durP2;ratioP2
16890;SDS011;8562;52.246;20.966;2022-09-02T00:03:51;1.10;;;0.90;;
16890;SDS011;8562;52.246;20.966;2022-09-02T00:06:18;1.03;;;0.93;;
16890;SDS011;8562;52.246;20.966;2022-09-02T00:08:44;0.77;;;0.77;;
16890;SDS011;8562;52.246;20.966;2022-09-02T00:11:15;1.67;;;0.83;;
16890;SDS011;8562;52.246;20.966;2022-09-02T00:13:42;1.20;;;1.10;;
16890;SDS011;8562;52.246;20.966;2022-09-02T00:16:08;1.03;;;0.93;;
16890;SDS011;8562;52.246;20.966;2022-09-02T00:18:35;1.63;;;1.03;;
16890;SDS011;8562;52.246;20.966;2022-09-02T00:21:02;1.90;;;1.00;;
16890;SDS011;8562;52.246;20.966;2022-09-02T00:23:28;1.70;;;1.02;;
16890;SDS011;8562;52.246;20.966;2022-09-02T00:25:54;0.60;;;0.60;;
16890;SDS011;8562;52.246;20.966;2022-09-02T00:28:21;0.63;;;0.63;;
16890;SDS011;8562;52.246;20.966;2022-09-02T00:30:47;5.00;;;1.07;;
16890;SDS011;8562;52.246;20.966;2022-09-02T00:33:14;0.73;;;0.73;;
16890;SDS011;8562;52.246;20.966;2022-09-02T00:35:42;0.63;;;0.63;;
16890;SDS011;8562;52.246;20.966;2022-09-02T00:38:08;1.33;;;0.83;;
16890;SDS011;8562;52.246;20.966;2022-09-02T00:40:35;1.17;;;0.97;;
16890;SDS011;8562;52.246;20.966;2022-09-02T00:43:04;0.83;;;0.77;;
16890;SDS011;8562;52.246;20.966;2022-09-02T00:45:30;1.20;;;0.70;;
16890;SDS011;8562;52.246;20.966;2022-09-02T00:47:56;1.70;;;0.60;;
16890;SDS011;8562;52.246;20.966;2022-09-02T00:50:23;0.73;;;0.73;;
16890;SDS011;8562;52.246;20.966;2022-09-02T00:52:52;1.13;;;0.80;;
16890;SDS011;8562;52.246;20.966;2022-09-02T00:55:25;1.33;;;0.70;;
16890;SDS011;8562;52.246;20.966;2022-09-02T00:57:56;1.20;;;0.83;;
16890;SDS011;8562;52.246;20.966;2022-09-02T01:00:26;1.50;;;0.70;;
16890;SDS011;8562;52.246;20.966;2022-09-02T01:02:57;2.00;;;0.93;;
16890;SDS011;8562;52.246;20.966;2022-09-02T01:05:24;4.53;;;0.73;;
16890;SDS011;8562;52.246;20.966;2022-09-02T01:07:51;0.80;;;0.70;;
16890;SDS011;8562;52.246;20.966;2022-09-02T01:10:20;2.33;;;0.60;;
16890;SDS011;8562;52.246;20.966;2022-09-02T01:12:47;0.77;;;0.70;;
16890;SDS011;8562;52.246;20.966;2022-09-02T01:15:14;1.20;;;0.43;;
16890;SDS011;8562;52.246;20.966;2022-09-02T01:17:45;1.37;;;0.80;;
16890;SDS011;8562;52.246;20.966;2022-09-02T01:20:14;1.03;;;0.73;;
16890;SDS011;8562;52.246;20.966;2022-09-02T01:22:41;1.23;;;0.60;;
16890;SDS011;8562;52.246;20.966;2022-09-02T01:25:11;1.27;;;0.77;;
16890;SDS011;8562;52.246;20.966;2022-09-02T01:27:39;0.57;;;0.57;;
16890;SDS011;8562;52.246;20.966;2022-09-02T01:30:06;0.97;;;0.60;;
16890;SDS011;8562;52.246;20.966;2022-09-02T01:32:33;1.40;;;0.80;;
16890;SDS011;8562;52.246;20.966;2022-09-02T01:34:59;0.60;;;0.60;;
16890;SDS011;8562;52.246;20.966;2022-09-02T01:37:25;0.60;;;0.50;;
16890;SDS011;8562;52.246;20.966;2022-09-02T01:39:52;2.93;;;0.87;;
16890;SDS011;8562;52.246;20.966;2022-09-02T01:42:19;0.67;;;0.67;;
16890;SDS011;8562;52.246;20.966;2022-09-02T01:44:46;1.60;;;0.70;;
16890;SDS011;8562;52.246;20.966;2022-09-02T01:47:14;1.37;;;0.70;;
16890;SDS011;8562;52.246;20.966;2022-09-02T01:49:41;0.60;;;0.60;;
16890;SDS011;8562;52.246;20.966;2022-09-02T01:52:10;1.57;;;0.77;;
16890;SDS011;8562;52.246;20.966;2022-09-02T01:54:36;1.07;;;0.70;;
16890;SDS011;8562;52.246;20.966;2022-09-02T01:57:02;0.93;;;0.70;;
16890;SDS011;8562;52.246;20.966;2022-09-02T01:59:29;0.93;;;0.77;;
16890;SDS011;8562;52.246;20.966;2022-09-02T02:01:55;0.43;;;0.43;;
16890;SDS011;8562;52.246;20.966;2022-09-02T02:04:21;0.80;;;0.57;;
16890;SDS011;8562;52.246;20.966;2022-09-02T02:06:51;0.67;;;0.53;;
16890;SDS011;8562;52.246;20.966;2022-09-02T02:09:17;2.37;;;0.67;;
16890;SDS011;8562;52.246;20.966;2022-09-02T02:11:45;0.77;;;0.50;;
16890;SDS011;8562;52.246;20.966;2022-09-02T02:14:13;1.10;;;0.67;;
16890;SDS011;8562;52.246;20.966;2022-09-02T02:16:45;1.97;;;0.80;;
16890;SDS011;8562;52.246;20.966;2022-09-02T02:19:12;0.60;;;0.60;;
16890;SDS011;8562;52.246;20.966;2022-09-02T02:21:38;0.40;;;0.40;;
16890;SDS011;8562;52.246;20.966;2022-09-02T02:24:04;1.00;;;0.90;;
16890;SDS011;8562;52.246;20.966;2022-09-02T02:26:32;0.80;;;0.50;;
16890;SDS011;8562;52.246;20.966;2022-09-02T02:28:58;1.23;;;1.00;;
16890;SDS011;8562;52.246;20.966;2022-09-02T02:31:25;0.60;;;0.60;;
16890;SDS011;8562;52.246;20.966;2022-09-02T02:33:52;1.87;;;0.93;;
16890;SDS011;8562;52.246;20.966;2022-09-02T02:36:18;0.70;;;0.70;;
16890;SDS011;8562;52.246;20.966;2022-09-02T02:38:44;0.50;;;0.50;;
16890;SDS011;8562;52.246;20.966;2022-09-02T02:41:14;1.13;;;0.70;;
16890;SDS011;8562;52.246;20.966;2022-09-02T02:43:41;1.27;;;0.70;;
16890;SDS011;8562;52.246;20.966;2022-09-02T02:46:09;3.13;;;0.60;;
16890;SDS011;8562;52.246;20.966;2022-09-02T02:48:36;2.63;;;0.77;;
16890;SDS011;8562;52.246;20.966;2022-09-02T02:51:04;1.40;;;0.83;;
16890;SDS011;8562;52.246;20.966;2022-09-02T02:53:31;1.03;;;0.93;;
16890;SDS011;8562;52.246;20.966;2022-09-02T02:55:57;2.20;;;0.60;;
16890;SDS011;8562;52.246;20.966;2022-09-02T02:58:23;1.30;;;0.70;;
16890;SDS011;8562;52.246;20.966;2022-09-02T03:00:50;1.30;;;0.80;;
16890;SDS011;8562;52.246;20.966;2022-09-02T03:03:18;0.60;;;0.60;;
16890;SDS011;8562;52.246;20.966;2022-09-02T03:05:49;2.03;;;0.70;;
16890;SDS011;8562;52.246;20.966;2022-09-02T03:08:17;2.73;;;0.60;;
16890;SDS011;8562;52.246;20.966;2022-09-02T03:10:45;5.00;;;1.00;;
16890;SDS011;8562;52.246;20.966;2022-09-02T03:13:12;1.67;;;0.70;;
16890;SDS011;8562;52.246;20.966;2022-09-02T03:15:40;1.13;;;0.77;;
16890;SDS011;8562;52.246;20.966;2022-09-02T03:18:07;1.20;;;1.10;;
16890;SDS011;8562;52.246;20.966;2022-09-02T03:20:33;1.63;;;1.00;;
16890;SDS011;8562;52.246;20.966;2022-09-02T03:23:03;5.33;;;1.23;;
16890;SDS011;8562;52.246;20.966;2022-09-02T03:25:31;1.67;;;1.17;;
16890;SDS011;8562;52.246;20.966;2022-09-02T03:28:02;2.23;;;0.97;;
16890;SDS011;8562;52.246;20.966;2022-09-02T03:30:29;1.17;;;0.90;;
16890;SDS011;8562;52.246;20.966;2022-09-02T03:32:57;1.00;;;0.90;;
16890;SDS011;8562;52.246;20.966;2022-09-02T03:35:25;2.10;;;1.07;;
16890;SDS011;8562;52.246;20.966;2022-09-02T03:37:52;1.07;;;0.77;;
16890;SDS011;8562;52.246;20.966;2022-09-02T03:40:21;1.10;;;0.80;;
16890;SDS011;8562;52.246;20.966;2022-09-02T03:42:50;2.33;;;0.83;;
16890;SDS011;8562;52.246;20.966;2022-09-02T03:45:18;1.43;;;0.90;;
16890;SDS011;8562;52.246;20.966;2022-09-02T03:47:46;2.37;;;0.97;;
16890;SDS011;8562;52.246;20.966;2022-09-02T03:50:23;1.43;;;1.13;;
16890;SDS011;8562;52.246;20.966;2022-09-02T03:52:51;2.27;;;1.17;;
16890;SDS011;8562;52.246;20.966;2022-09-02T03:55:19;2.90;;;1.00;;
16890;SDS011;8562;52.246;20.966;2022-09-02T03:57:46;2.23;;;1.37;;
16890;SDS011;8562;52.246;20.966;2022-09-02T04:00:13;3.53;;;1.00;;
16890;SDS011;8562;52.246;20.966;2022-09-02T04:02:39;2.47;;;1.27;;
16890;SDS011;8562;52.246;20.966;2022-09-02T04:05:09;1.20;;;1.10;;
16890;SDS011;8562;52.246;20.966;2022-09-02T04:07:37;1.40;;;1.30;;
16890;SDS011;8562;52.246;20.966;2022-09-02T04:10:04;1.13;;;0.97;;
16890;SDS011;8562;52.246;20.966;2022-09-02T04:12:32;1.10;;;1.00;;
16890;SDS011;8562;52.246;20.966;2022-09-02T04:14:58;1.40;;;1.30;;
16890;SDS011;8562;52.246;20.966;2022-09-02T04:17:25;2.47;;;1.60;;
16890;SDS011;8562;52.246;20.966;2022-09-02T04:19:52;3.00;;;1.23;;
16890;SDS011;8562;52.246;20.966;2022-09-02T04:22:19;2.20;;;1.77;;
16890;SDS011;8562;52.246;20.966;2022-09-02T04:24:45;7.93;;;1.43;;
16890;SDS011;8562;52.246;20.966;2022-09-02T04:27:11;1.87;;;1.40;;
16890;SDS011;8562;52.246;20.966;2022-09-02T04:29:37;2.27;;;1.03;;
16890;SDS011;8562;52.246;20.966;2022-09-02T04:32:04;3.30;;;1.20;;
16890;SDS011;8562;52.246;20.966;2022-09-02T04:34:31;1.83;;;1.30;;
16890;SDS011;8562;52.246;20.966;2022-09-02T04:36:57;2.20;;;1.60;;
16890;SDS011;8562;52.246;20.966;2022-09-02T04:39:23;1.47;;;1.00;;
16890;SDS011;8562;52.246;20.966;2022-09-02T04:41:50;2.50;;;1.33;;
16890;SDS011;8562;52.246;20.966;2022-09-02T04:44:18;4.00;;;1.03;;
16890;SDS011;8562;52.246;20.966;2022-09-02T04:46:46;3.37;;;1.00;;
16890;SDS011;8562;52.246;20.966;2022-09-02T04:49:16;1.27;;;1.07;;
16890;SDS011;8562;52.246;20.966;2022-09-02T04:51:44;2.50;;;1.20;;
16890;SDS011;8562;52.246;20.966;2022-09-02T04:54:10;3.40;;;1.20;;
16890;SDS011;8562;52.246;20.966;2022-09-02T04:56:39;2.47;;;1.00;;
16890;SDS011;8562;52.246;20.966;2022-09-02T04:59:07;1.40;;;0.90;;
16890;SDS011;8562;52.246;20.966;2022-09-02T05:01:35;1.73;;;1.10;;
16890;SDS011;8562;52.246;20.966;2022-09-02T05:04:12;0.83;;;0.83;;
16890;SDS011;8562;52.246;20.966;2022-09-02T05:06:42;1.30;;;1.20;;
16890;SDS011;8562;52.246;20.966;2022-09-02T05:09:17;1.33;;;1.23;;
16890;SDS011;8562;52.246;20.966;2022-09-02T05:11:48;1.40;;;0.97;;
16890;SDS011;8562;52.246;20.966;2022-09-02T05:14:17;2.20;;;1.03;;
16890;SDS011;8562;52.246;20.966;2022-09-02T05:16:43;0.73;;;0.73;;
16890;SDS011;8562;52.246;20.966;2022-09-02T05:19:13;2.10;;;1.07;;
16890;SDS011;8562;52.246;20.966;2022-09-02T05:21:43;2.37;;;0.73;;
16890;SDS011;8562;52.246;20.966;2022-09-02T05:24:17;0.93;;;0.60;;
16890;SDS011;8562;52.246;20.966;2022-09-02T05:26:43;0.97;;;0.80;;
16890;SDS011;8562;52.246;20.966;2022-09-02T05:29:12;1.13;;;0.93;;
16890;SDS011;8562;52.246;20.966;2022-09-02T05:31:39;5.27;;;1.20;;
16890;SDS011;8562;52.246;20.966;2022-09-02T05:34:09;2.37;;;0.93;;
16890;SDS011;8562;52.246;20.966;2022-09-02T05:36:36;1.37;;;1.10;;
16890;SDS011;8562;52.246;20.966;2022-09-02T05:39:02;1.30;;;0.80;;
16890;SDS011;8562;52.246;20.966;2022-09-02T05:41:32;1.10;;;0.87;;
16890;SDS011;8562;52.246;20.966;2022-09-02T05:44:01;1.10;;;0.93;;
16890;SDS011;8562;52.246;20.966;2022-09-02T05:46:28;1.03;;;0.93;;
16890;SDS011;8562;52.246;20.966;2022-09-02T05:48:57;6.77;;;1.40;;
16890;SDS011;8562;52.246;20.966;2022-09-02T05:51:48;1.33;;;0.73;;
16890;SDS011;8562;52.246;20.966;2022-09-02T05:54:26;0.90;;;0.73;;
16890;SDS011;8562;52.246;20.966;2022-09-02T05:56:54;1.20;;;0.83;;
16890;SDS011;8562;52.246;20.966;2022-09-02T05:59:23;1.13;;;1.03;;
16890;SDS011;8562;52.246;20.966;2022-09-02T06:01:51;2.10;;;1.20;;
16890;SDS011;8562;52.246;20.966;2022-09-02T06:04:18;2.90;;;1.60;;
16890;SDS011;8562;52.246;20.966;2022-09-02T06:06:46;1.97;;;1.17;;
16890;SDS011;8562;52.246;20.966;2022-09-02T06:09:18;1.83;;;0.97;;
16890;SDS011;8562;52.246;20.966;2022-09-02T06:11:45;1.70;;;1.13;;
16890;SDS011;8562;52.246;20.966;2022-09-02T06:14:17;3.03;;;0.80;;
16890;SDS011;8562;52.246;20.966;2022-09-02T06:16:44;4.23;;;1.30;;
16890;SDS011;8562;52.246;20.966;2022-09-02T06:19:19;1.13;;;0.93;;
16890;SDS011;8562;52.246;20.966;2022-09-02T06:21:51;3.03;;;1.10;;
16890;SDS011;8562;52.246;20.966;2022-09-02T06:24:17;1.37;;;0.97;;
16890;SDS011;8562;52.246;20.966;2022-09-02T06:26:43;0.83;;;0.60;;
16890;SDS011;8562;52.246;20.966;2022-09-02T06:29:10;0.93;;;0.90;;
16890;SDS011;8562;52.246;20.966;2022-09-02T06:31:38;0.83;;;0.83;;
16890;SDS011;8562;52.246;20.966;2022-09-02T06:34:05;2.63;;;1.13;;
16890;SDS011;8562;52.246;20.966;2022-09-02T06:36:32;2.13;;;1.93;;
16890;SDS011;8562;52.246;20.966;2022-09-02T06:39:00;1.30;;;0.73;;
16890;SDS011;8562;52.246;20.966;2022-09-02T06:41:30;2.03;;;0.87;;
16890;SDS011;8562;52.246;20.966;2022-09-02T06:44:01;1.90;;;0.80;;
16890;SDS011;8562;52.246;20.966;2022-09-02T06:46:31;0.70;;;0.70;;
16890;SDS011;8562;52.246;20.966;2022-09-02T06:49:01;2.63;;;1.17;;
16890;SDS011;8562;52.246;20.966;2022-09-02T06:51:29;2.30;;;0.93;;
16890;SDS011;8562;52.246;20.966;2022-09-02T06:53:58;1.17;;;0.80;;
16890;SDS011;8562;52.246;20.966;2022-09-02T06:56:28;1.50;;;0.70;;
16890;SDS011;8562;52.246;20.966;2022-09-02T06:58:55;3.17;;;1.10;;
16890;SDS011;8562;52.246;20.966;2022-09-02T07:01:34;1.03;;;0.90;;
16890;SDS011;8562;52.246;20.966;2022-09-02T07:04:01;5.50;;;1.20;;
16890;SDS011;8562;52.246;20.966;2022-09-02T07:06:48;2.53;;;0.80;;
16890;SDS011;8562;52.246;20.966;2022-09-02T07:09:17;2.23;;;0.93;;
16890;SDS011;8562;52.246;20.966;2022-09-02T07:11:44;1.40;;;0.83;;
16890;SDS011;8562;52.246;20.966;2022-09-02T07:14:13;2.10;;;1.00;;
16890;SDS011;8562;52.246;20.966;2022-09-02T07:16:45;1.40;;;1.13;;
16890;SDS011;8562;52.246;20.966;2022-09-02T07:19:12;3.00;;;1.00;;
16890;SDS011;8562;52.246;20.966;2022-09-02T07:21:39;2.60;;;0.80;;
16890;SDS011;8562;52.246;20.966;2022-09-02T07:24:06;2.30;;;0.90;;
16890;SDS011;8562;52.246;20.966;2022-09-02T07:26:33;2.53;;;0.80;;
16890;SDS011;8562;52.246;20.966;2022-09-02T07:29:00;2.97;;;1.00;;
16890;SDS011;8562;52.246;20.966;2022-09-02T07:31:26;1.00;;;0.90;;
16890;SDS011;8562;52.246;20.966;2022-09-02T07:33:54;3.30;;;0.73;;
16890;SDS011;8562;52.246;20.966;2022-09-02T07:36:24;2.30;;;0.70;;
16890;SDS011;8562;52.246;20.966;2022-09-02T07:38:50;0.60;;;0.60;;
16890;SDS011;8562;52.246;20.966;2022-09-02T07:41:18;2.50;;;0.80;;
16890;SDS011;8562;52.246;20.966;2022-09-02T07:43:45;0.70;;;0.50;;
16890;SDS011;8562;52.246;20.966;2022-09-02T07:46:11;3.90;;;0.63;;
16890;SDS011;8562;52.246;20.966;2022-09-02T07:48:38;0.40;;;0.40;;
16890;SDS011;8562;52.246;20.966;2022-09-02T07:51:05;1.23;;;0.43;;
16890;SDS011;8562;52.246;20.966;2022-09-02T07:53:34;2.30;;;0.67;;
16890;SDS011;8562;52.246;20.966;2022-09-02T07:56:01;0.40;;;0.40;;
16890;SDS011;8562;52.246;20.966;2022-09-02T07:58:28;1.33;;;0.80;;
16890;SDS011;8562;52.246;20.966;2022-09-02T08:00:55;1.33;;;0.83;;
16890;SDS011;8562;52.246;20.966;2022-09-02T08:03:25;1.67;;;0.50;;
16890;SDS011;8562;52.246;20.966;2022-09-02T08:05:54;2.57;;;0.93;;
16890;SDS011;8562;52.246;20.966;2022-09-02T08:08:21;1.20;;;0.60;;
16890;SDS011;8562;52.246;20.966;2022-09-02T08:10:48;1.07;;;0.40;;
16890;SDS011;8562;52.246;20.966;2022-09-02T08:13:15;0.43;;;0.43;;
16890;SDS011;8562;52.246;20.966;2022-09-02T08:15:41;1.60;;;0.43;;
16890;SDS011;8562;52.246;20.966;2022-09-02T08:18:07;0.27;;;0.23;;
16890;SDS011;8562;52.246;20.966;2022-09-02T08:20:34;3.03;;;0.67;;
16890;SDS011;8562;52.246;20.966;2022-09-02T08:23:02;1.40;;;0.40;;
16890;SDS011;8562;52.246;20.966;2022-09-02T08:25:28;1.03;;;0.20;;
16890;SDS011;8562;52.246;20.966;2022-09-02T08:27:54;1.50;;;0.70;;
16890;SDS011;8562;52.246;20.966;2022-09-02T08:30:20;0.73;;;0.40;;
16890;SDS011;8562;52.246;20.966;2022-09-02T08:32:47;0.93;;;0.53;;
16890;SDS011;8562;52.246;20.966;2022-09-02T08:35:13;0.60;;;0.60;;
16890;SDS011;8562;52.246;20.966;2022-09-02T08:37:39;1.90;;;0.30;;
16890;SDS011;8562;52.246;20.966;2022-09-02T08:40:12;0.70;;;0.60;;
16890;SDS011;8562;52.246;20.966;2022-09-02T08:42:41;0.40;;;0.40;;
16890;SDS011;8562;52.246;20.966;2022-09-02T08:45:12;1.80;;;0.37;;
16890;SDS011;8562;52.246;20.966;2022-09-02T08:47:40;0.60;;;0.50;;
16890;SDS011;8562;52.246;20.966;2022-09-02T08:50:11;1.03;;;0.43;;
16890;SDS011;8562;52.246;20.966;2022-09-02T08:52:44;0.87;;;0.40;;
16890;SDS011;8562;52.246;20.966;2022-09-02T08:55:20;1.30;;;0.30;;
16890;SDS011;8562;52.246;20.966;2022-09-02T08:57:50;1.30;;;0.50;;
16890;SDS011;8562;52.246;20.966;2022-09-02T09:00:21;0.33;;;0.20;;
16890;SDS011;8562;52.246;20.966;2022-09-02T09:02:53;0.50;;;0.40;;
16890;SDS011;8562;52.246;20.966;2022-09-02T09:08:19;0.73;;;0.30;;
16890;SDS011;8562;52.246;20.966;2022-09-02T09:10:51;4.73;;;0.63;;
16890;SDS011;8562;52.246;20.966;2022-09-02T09:16:11;2.73;;;0.67;;
16890;SDS011;8562;52.246;20.966;2022-09-02T09:18:40;1.53;;;0.27;;
16890;SDS011;8562;52.246;20.966;2022-09-02T09:21:08;0.27;;;0.27;;
16890;SDS011;8562;52.246;20.966;2022-09-02T09:23:35;0.93;;;0.33;;
16890;SDS011;8562;52.246;20.966;2022-09-02T09:26:10;2.50;;;0.47;;
16890;SDS011;8562;52.246;20.966;2022-09-02T09:28:40;0.50;;;0.30;;
16890;SDS011;8562;52.246;20.966;2022-09-02T09:31:11;0.83;;;0.20;;
16890;SDS011;8562;52.246;20.966;2022-09-02T09:33:39;0.30;;;0.30;;
16890;SDS011;8562;52.246;20.966;2022-09-02T09:36:05;0.73;;;0.43;;
16890;SDS011;8562;52.246;20.966;2022-09-02T09:38:34;0.40;;;0.37;;
16890;SDS011;8562;52.246;20.966;2022-09-02T09:41:09;2.17;;;0.40;;
16890;SDS011;8562;52.246;20.966;2022-09-02T09:43:36;0.50;;;0.33;;
16890;SDS011;8562;52.246;20.966;2022-09-02T09:46:19;0.83;;;0.70;;
16890;SDS011;8562;52.246;20.966;2022-09-02T09:48:47;0.43;;;0.30;;
16890;SDS011;8562;52.246;20.966;2022-09-02T09:51:15;0.20;;;0.10;;
16890;SDS011;8562;52.246;20.966;2022-09-02T09:53:41;2.10;;;0.43;;
16890;SDS011;8562;52.246;20.966;2022-09-02T10:03:42;1.13;;;0.47;;
16890;SDS011;8562;52.246;20.966;2022-09-02T10:06:42;0.10;;;0.10;;
16890;SDS011;8562;52.246;20.966;2022-09-02T10:09:05;0.50;;;0.30;;
16890;SDS011;8562;52.246;20.966;2022-09-02T10:11:33;0.83;;;0.40;;
16890;SDS011;8562;52.246;20.966;2022-09-02T10:14:03;0.50;;;0.37;;
16890;SDS011;8562;52.246;20.966;2022-09-02T10:16:33;0.97;;;0.60;;
16890;SDS011;8562;52.246;20.966;2022-09-02T10:27:15;0.30;;;0.30;;
16890;SDS011;8562;52.246;20.966;2022-09-02T10:34:46;1.43;;;0.47;;
16890;SDS011;8562;52.246;20.966;2022-09-02T10:39:59;0.30;;;0.20;;
16890;SDS011;8562;52.246;20.966;2022-09-02T10:47:40;0.73;;;0.60;;
16890;SDS011;8562;52.246;20.966;2022-09-02T10:55:28;0.27;;;0.27;;
16890;SDS011;8562;52.246;20.966;2022-09-02T10:58:03;0.70;;;0.50;;
16890;SDS011;8562;52.246;20.966;2022-09-02T11:00:31;0.40;;;0.40;;
16890;SDS011;8562;52.246;20.966;2022-09-02T11:08:06;0.67;;;0.43;;
16890;SDS011;8562;52.246;20.966;2022-09-02T11:10:42;0.30;;;0.30;;
16890;SDS011;8562;52.246;20.966;2022-09-02T11:13:14;0.40;;;0.30;;
16890;SDS011;8562;52.246;20.966;2022-09-02T11:20:43;0.77;;;0.47;;
16890;SDS011;8562;52.246;20.966;2022-09-02T11:23:26;0.50;;;0.30;;
16890;SDS011;8562;52.246;20.966;2022-09-02T11:28:45;0.50;;;0.40;;
16890;SDS011;8562;52.246;20.966;2022-09-02T11:31:18;0.93;;;0.33;;
16890;SDS011;8562;52.246;20.966;2022-09-02T11:33:57;0.50;;;0.40;;
16890;SDS011;8562;52.246;20.966;2022-09-02T11:36:25;0.27;;;0.27;;
16890;SDS011;8562;52.246;20.966;2022-09-02T11:43:54;0.40;;;0.20;;
16890;SDS011;8562;52.246;20.966;2022-09-02T11:46:30;0.23;;;0.20;;
16890;SDS011;8562;52.246;20.966;2022-09-02T11:49:20;1.93;;;0.50;;
16890;SDS011;8562;52.246;20.966;2022-09-02T11:52:00;0.90;;;0.60;;
16890;SDS011;8562;52.246;20.966;2022-09-02T11:54:31;0.33;;;0.33;;
16890;SDS011;8562;52.246;20.966;2022-09-02T11:56:59;0.47;;;0.40;;
16890;SDS011;8562;52.246;20.966;2022-09-02T12:02:12;0.53;;;0.30;;
16890;SDS011;8562;52.246;20.966;2022-09-02T12:04:38;1.50;;;0.30;;
16890;SDS011;8562;52.246;20.966;2022-09-02T12:09:41;2.67;;;0.37;;
16890;SDS011;8562;52.246;20.966;2022-09-02T12:12:07;0.40;;;0.40;;
16890;SDS011;8562;52.246;20.966;2022-09-02T12:17:12;0.83;;;0.20;;
16890;SDS011;8562;52.246;20.966;2022-09-02T12:20:01;0.37;;;0.37;;
16890;SDS011;8562;52.246;20.966;2022-09-02T12:22:31;0.77;;;0.40;;
16890;SDS011;8562;52.246;20.966;2022-09-02T12:27:27;1.00;;;0.53;;
16890;SDS011;8562;52.246;20.966;2022-09-02T12:29:54;1.70;;;0.60;;
16890;SDS011;8562;52.246;20.966;2022-09-02T12:35:09;0.53;;;0.40;;
16890;SDS011;8562;52.246;20.966;2022-09-02T12:38:24;0.60;;;0.47;;
16890;SDS011;8562;52.246;20.966;2022-09-02T12:40:31;0.23;;;0.23;;
16890;SDS011;8562;52.246;20.966;2022-09-02T12:42:59;1.50;;;0.30;;
16890;SDS011;8562;52.246;20.966;2022-09-02T12:45:27;1.07;;;0.40;;
16890;SDS011;8562;52.246;20.966;2022-09-02T12:48:10;0.40;;;0.40;;
16890;SDS011;8562;52.246;20.966;2022-09-02T12:55:39;2.20;;;0.50;;
16890;SDS011;8562;52.246;20.966;2022-09-02T12:58:09;1.70;;;0.47;;
16890;SDS011;8562;52.246;20.966;2022-09-02T13:03:12;0.23;;;0.23;;
16890;SDS011;8562;52.246;20.966;2022-09-02T13:08:22;0.50;;;0.27;;
16890;SDS011;8562;52.246;20.966;2022-09-02T13:14:01;1.10;;;0.40;;
16890;SDS011;8562;52.246;20.966;2022-09-02T13:32:01;0.20;;;0.20;;
16890;SDS011;8562;52.246;20.966;2022-09-02T13:34:41;0.63;;;0.57;;
16890;SDS011;8562;52.246;20.966;2022-09-02T13:37:42;0.30;;;0.30;;
16890;SDS011;8562;52.246;20.966;2022-09-02T13:40:04;0.27;;;0.27;;
16890;SDS011;8562;52.246;20.966;2022-09-02T13:42:30;0.30;;;0.30;;
16890;SDS011;8562;52.246;20.966;2022-09-02T13:47:35;0.87;;;0.23;;
16890;SDS011;8562;52.246;20.966;2022-09-02T13:50:01;0.30;;;0.30;;
16890;SDS011;8562;52.246;20.966;2022-09-02T13:52:30;2.60;;;0.50;;
16890;SDS011;8562;52.246;20.966;2022-09-02T13:54:56;0.73;;;0.40;;
16890;SDS011;8562;52.246;20.966;2022-09-02T13:57:24;0.40;;;0.40;;
16890;SDS011;8562;52.246;20.966;2022-09-02T13:59:52;1.73;;;0.60;;
16890;SDS011;8562;52.246;20.966;2022-09-02T14:02:19;1.00;;;0.40;;
16890;SDS011;8562;52.246;20.966;2022-09-02T14:04:46;1.73;;;0.40;;
16890;SDS011;8562;52.246;20.966;2022-09-02T14:07:14;0.97;;;0.40;;
16890;SDS011;8562;52.246;20.966;2022-09-02T14:09:40;2.40;;;0.60;;
16890;SDS011;8562;52.246;20.966;2022-09-02T14:12:08;2.83;;;0.63;;
16890;SDS011;8562;52.246;20.966;2022-09-02T14:14:35;0.70;;;0.30;;
16890;SDS011;8562;52.246;20.966;2022-09-02T14:17:20;1.33;;;0.37;;
16890;SDS011;8562;52.246;20.966;2022-09-02T14:19:47;0.20;;;0.20;;
16890;SDS011;8562;52.246;20.966;2022-09-02T14:22:22;0.57;;;0.40;;
16890;SDS011;8562;52.246;20.966;2022-09-02T14:24:49;2.13;;;0.50;;
16890;SDS011;8562;52.246;20.966;2022-09-02T14:27:16;3.30;;;0.40;;
16890;SDS011;8562;52.246;20.966;2022-09-02T14:29:43;8.37;;;0.60;;
16890;SDS011;8562;52.246;20.966;2022-09-02T14:32:14;0.30;;;0.30;;
16890;SDS011;8562;52.246;20.966;2022-09-02T14:34:44;2.03;;;0.30;;
16890;SDS011;8562;52.246;20.966;2022-09-02T14:42:25;0.20;;;0.20;;
16890;SDS011;8562;52.246;20.966;2022-09-02T14:44:51;0.33;;;0.30;;
16890;SDS011;8562;52.246;20.966;2022-09-02T14:47:17;0.70;;;0.30;;
16890;SDS011;8562;52.246;20.966;2022-09-02T14:49:49;0.30;;;0.30;;
16890;SDS011;8562;52.246;20.966;2022-09-02T14:52:29;0.20;;;0.20;;
16890;SDS011;8562;52.246;20.966;2022-09-02T14:55:03;0.20;;;0.20;;
16890;SDS011;8562;52.246;20.966;2022-09-02T14:57:34;1.10;;;0.47;;
16890;SDS011;8562;52.246;20.966;2022-09-02T15:00:04;0.37;;;0.37;;
16890;SDS011;8562;52.246;20.966;2022-09-02T15:02:34;3.20;;;0.40;;
16890;SDS011;8562;52.246;20.966;2022-09-02T15:05:06;3.93;;;0.60;;
16890;SDS011;8562;52.246;20.966;2022-09-02T15:07:33;0.20;;;0.20;;
16890;SDS011;8562;52.246;20.966;2022-09-02T15:09:59;3.50;;;0.33;;
16890;SDS011;8562;52.246;20.966;2022-09-02T15:12:26;2.20;;;0.30;;
16890;SDS011;8562;52.246;20.966;2022-09-02T15:14:54;0.30;;;0.30;;
16890;SDS011;8562;52.246;20.966;2022-09-02T15:17:20;0.40;;;0.30;;
16890;SDS011;8562;52.246;20.966;2022-09-02T15:19:46;0.30;;;0.30;;
16890;SDS011;8562;52.246;20.966;2022-09-02T15:22:13;0.53;;;0.43;;
16890;SDS011;8562;52.246;20.966;2022-09-02T15:24:39;0.20;;;0.20;;
16890;SDS011;8562;52.246;20.966;2022-09-02T15:27:07;0.20;;;0.10;;
16890;SDS011;8562;52.246;20.966;2022-09-02T15:29:33;0.20;;;0.20;;
16890;SDS011;8562;52.246;20.966;2022-09-02T15:31:59;2.37;;;0.40;;
16890;SDS011;8562;52.246;20.966;2022-09-02T15:34:28;1.50;;;0.40;;
16890;SDS011;8562;52.246;20.966;2022-09-02T15:36:54;0.80;;;0.50;;
16890;SDS011;8562;52.246;20.966;2022-09-02T15:39:21;0.47;;;0.17;;
16890;SDS011;8562;52.246;20.966;2022-09-02T15:41:48;2.10;;;0.20;;
16890;SDS011;8562;52.246;20.966;2022-09-02T15:44:15;0.33;;;0.30;;
16890;SDS011;8562;52.246;20.966;2022-09-02T15:46:41;0.97;;;0.30;;
16890;SDS011;8562;52.246;20.966;2022-09-02T15:49:09;0.77;;;0.70;;
16890;SDS011;8562;52.246;20.966;2022-09-02T15:51:36;1.90;;;0.30;;
16890;SDS011;8562;52.246;20.966;2022-09-02T15:54:06;0.40;;;0.40;;
16890;SDS011;8562;52.246;20.966;2022-09-02T15:56:34;0.20;;;0.20;;
16890;SDS011;8562;52.246;20.966;2022-09-02T15:59:01;0.30;;;0.30;;
16890;SDS011;8562;52.246;20.966;2022-09-02T16:01:29;0.20;;;0.20;;
16890;SDS011;8562;52.246;20.966;2022-09-02T16:03:56;0.57;;;0.40;;
16890;SDS011;8562;52.246;20.966;2022-09-02T16:06:23;1.47;;;0.40;;
16890;SDS011;8562;52.246;20.966;2022-09-02T16:08:49;1.07;;;0.30;;
16890;SDS011;8562;52.246;20.966;2022-09-02T16:11:15;0.43;;;0.43;;
16890;SDS011;8562;52.246;20.966;2022-09-02T16:13:42;0.37;;;0.30;;
16890;SDS011;8562;52.246;20.966;2022-09-02T16:16:09;3.73;;;0.63;;
16890;SDS011;8562;52.246;20.966;2022-09-02T16:18:36;1.00;;;0.37;;
16890;SDS011;8562;52.246;20.966;2022-09-02T16:21:02;0.70;;;0.40;;
16890;SDS011;8562;52.246;20.966;2022-09-02T16:23:29;0.10;;;0.10;;
16890;SDS011;8562;52.246;20.966;2022-09-02T16:28:52;0.30;;;0.30;;
16890;SDS011;8562;52.246;20.966;2022-09-02T16:31:19;0.83;;;0.47;;
16890;SDS011;8562;52.246;20.966;2022-09-02T16:33:55;0.73;;;0.50;;
16890;SDS011;8562;52.246;20.966;2022-09-02T16:36:22;0.33;;;0.33;;
16890;SDS011;8562;52.246;20.966;2022-09-02T16:38:49;0.30;;;0.30;;
16890;SDS011;8562;52.246;20.966;2022-09-02T16:41:31;0.90;;;0.50;;
16890;SDS011;8562;52.246;20.966;2022-09-02T16:44:04;0.40;;;0.40;;
16890;SDS011;8562;52.246;20.966;2022-09-02T16:46:31;2.00;;;0.53;;
16890;SDS011;8562;52.246;20.966;2022-09-02T16:48:57;1.27;;;0.37;;
16890;SDS011;8562;52.246;20.966;2022-09-02T16:51:23;0.30;;;0.30;;